Impacts METAR Board
IDs:

KT74 - Taylor Muni, TX, US

Updated at: 1800 UTC 16 Oct 2021
Potential Impact None Slight Moderate High
Time 16/06Z 16/07Z 16/08Z 16/09Z 16/10Z 16/11Z 16/12Z 16/13Z 16/14Z 16/15Z 16/16Z 16/17Z 16/18Z
Temp61 59 57 55 53 51 51 50 55 62 66 69 70
Dewpt48 48 47 47 47 47 46 47 48 47 46 43 41
Altim30.24 30.26 30.26 30.27 30.28 30.30 30.33 30.34 30.36 30.38 30.38 30.38 30.36
VIS10 10 10 10 10 10 10 10 10 10 10 10 10
CIG-- -- -- -- -- -- -- -- -- -- -- -- --
CoverCLRCLRCLRCLRCLRCLRCLRCLRCLRCLRCLRCLRCLR
FltCatVFRVFRVFRVFRVFRVFRVFRVFRVFRVFRVFRVFRVFR
WX--------------------------
WDir350350350350340340320035010203010
WSpd11 8 9 6 6 4 5 0 6 8 10 13 14
WGst-- -- -- -- -- -- -- -- -- -- 15 -- --
Raw hourly METARs
KT74 160555Z AUTO 35011KT 10SM CLR 16/09 A3024 RMK AO2 T01590091 10221 20158
KT74 160655Z AUTO 35008KT 10SM CLR 15/09 A3026 RMK AO2
KT74 160755Z AUTO 35009KT 10SM CLR 14/09 A3026 RMK AO2 T01400085
KT74 160855Z AUTO 35006KT 10SM CLR 13/08 A3027 RMK AO2 T01300083
KT74 160955Z AUTO 34006KT 10SM CLR 12/08 A3028 RMK AO2 T01190084
KT74 161055Z AUTO 34004KT 10SM CLR 11/08 A3030 RMK AO2 T01080084
KT74 161155Z AUTO 32005KT 10SM CLR 11/08 A3033 RMK AO2 T01060080 10158 20102
KT74 161255Z AUTO 00000KT 10SM CLR 10/08 A3034 RMK AO2 T00980082
KT74 161355Z AUTO 35006KT 10SM CLR 13/09 A3036 RMK AO2 T01300091
KT74 161455Z AUTO 01008KT 10SM CLR 17/09 A3038 RMK AO2 T01670085
KT74 161555Z AUTO 02010G15KT 10SM CLR 19/08 A3038 RMK AO2 T01910078
KT74 161655Z AUTO 03013KT 10SM CLR 20/06 A3038 RMK AO2 T02040059
KT74 161755Z AUTO 01014KT 10SM CLR 21/05 A3036 RMK AO2 T02130048 10216 20098